Time;durP1;ratioP1;P1;durP2;ratioP2;P2;SDS_P1;SDS_P2;PMS_P1;PMS_P2;Temp;Humidity;BMP_temperature;BMP_pressure;BME280_temperature;BME280_humidity;BME280_pressure;Samples;Min_cycle;Max_cycle;Signal;HPM_P1;HPM_P2
2022/04/15 04:02:35;;;;;;;8.68;6.40;;;6.70;99.90;;;;;;6250811;22;20028;-80
2022/04/15 04:05:01;;;;;;;11.55;6.05;;;6.70;99.90;;;;;;6225812;22;20017;-80
2022/04/15 04:07:26;;;;;;;10.77;6.57;;;6.70;99.90;;;;;;6225887;22;20015;-80
2022/04/15 04:09:52;;;;;;;9.10;5.93;;;6.70;99.90;;;;;;6252828;22;20015;-80
2022/04/15 04:12:17;;;;;;;8.75;5.60;;;6.70;99.90;;;;;;6225777;22;20051;-80
2022/04/15 04:14:44;;;;;;;8.45;6.50;;;6.70;99.90;;;;;;6252886;22;20023;-80
2022/04/15 04:17:09;;;;;;;11.82;6.72;;;6.70;99.90;;;;;;6253204;22;20020;-79
2022/04/15 04:19:35;;;;;;;9.93;6.40;;;6.70;99.90;;;;;;6252660;22;20004;-79
2022/04/15 04:22:00;;;;;;;9.02;6.20;;;6.70;99.90;;;;;;6225694;22;20020;-79
2022/04/15 04:24:26;;;;;;;10.00;6.00;;;6.70;99.90;;;;;;6252595;22;20011;-79
2022/04/15 04:26:52;;;;;;;9.07;5.93;;;6.60;99.90;;;;;;6225475;22;20017;-79
2022/04/15 04:29:17;;;;;;;8.65;5.85;;;6.70;99.90;;;;;;6225630;22;20005;-79
2022/04/15 04:31:43;;;;;;;10.60;6.75;;;6.70;99.90;;;;;;6226560;22;20017;-79
2022/04/15 04:34:08;;;;;;;7.97;6.30;;;6.80;99.90;;;;;;6226403;22;20047;-79
2022/04/15 04:36:34;;;;;;;8.45;6.43;;;6.80;99.90;;;;;;6252363;22;20018;-79
2022/04/15 04:38:59;;;;;;;10.35;6.63;;;6.80;99.90;;;;;;6253056;22;20436;-79
2022/04/15 04:41:25;;;;;;;7.43;5.72;;;6.80;99.90;;;;;;6253034;22;20411;-79
2022/04/15 04:43:51;;;;;;;8.32;5.88;;;6.80;99.90;;;;;;6253229;22;20425;-79
2022/04/15 04:46:17;;;;;;;11.70;6.65;;;6.80;99.90;;;;;;6225262;22;20020;-79
2022/04/15 04:48:42;;;;;;;9.75;6.07;;;6.90;99.90;;;;;;6252553;22;20099;-79
2022/04/15 04:51:08;;;;;;;11.90;6.32;;;6.90;99.90;;;;;;6252927;22;20023;-79
2022/04/15 04:53:34;;;;;;;8.18;5.88;;;6.90;99.90;;;;;;6225864;22;20015;-79
2022/04/15 04:55:59;;;;;;;9.77;6.47;;;6.90;99.90;;;;;;6253772;22;20087;-79
2022/04/15 04:58:25;;;;;;;11.38;6.90;;;7.00;99.90;;;;;;6226296;22;20001;-79
2022/04/15 05:00:50;;;;;;;11.05;6.93;;;7.00;99.90;;;;;;6227923;22;20020;-79
2022/04/15 05:03:16;;;;;;;10.32;6.80;;;7.10;99.90;;;;;;6251539;22;20012;-79
2022/04/15 05:05:41;;;;;;;9.38;6.63;;;7.20;99.90;;;;;;6251612;22;20083;-79
2022/04/15 05:08:07;;;;;;;10.52;6.65;;;7.30;99.90;;;;;;6252644;22;20004;-79
2022/04/15 05:10:32;;;;;;;12.88;6.70;;;7.40;99.90;;;;;;6252963;22;20012;-79
2022/04/15 05:12:59;;;;;;;9.32;7.10;;;7.40;99.90;;;;;;6251006;22;20009;-79
2022/04/15 05:15:25;;;;;;;10.90;7.22;;;7.50;99.90;;;;;;6252247;22;20009;-79
2022/04/15 05:17:50;;;;;;;10.18;6.53;;;7.60;99.90;;;;;;6254698;22;20008;-79
2022/04/15 05:20:16;;;;;;;9.10;6.28;;;7.70;99.90;;;;;;6252406;22;20009;-79
2022/04/15 05:22:42;;;;;;;8.73;6.35;;;7.80;99.90;;;;;;6253029;22;20353;-79
2022/04/15 05:25:07;;;;;;;9.57;6.20;;;7.80;99.90;;;;;;6252921;22;20341;-79
2022/04/15 05:27:33;;;;;;;8.50;6.00;;;7.90;99.90;;;;;;6255883;22;20012;-79
2022/04/15 05:29:58;;;;;;;8.23;6.45;;;7.90;99.90;;;;;;6256672;22;20011;-79
2022/04/15 05:32:24;;;;;;;8.25;5.68;;;8.00;99.90;;;;;;6255196;22;20016;-79
2022/04/15 05:34:50;;;;;;;9.30;6.20;;;8.00;99.90;;;;;;6256099;22;20004;-79
2022/04/15 05:37:15;;;;;;;8.40;6.30;;;8.10;99.90;;;;;;6256107;22;20132;-80
2022/04/15 05:39:41;;;;;;;9.50;6.82;;;8.10;99.90;;;;;;6254065;22;20055;-80
2022/04/15 05:42:07;;;;;;;9.85;6.38;;;8.20;99.90;;;;;;6255812;22;20032;-80
2022/04/15 05:44:32;;;;;;;9.35;6.60;;;8.30;99.90;;;;;;6254629;22;20087;-80
2022/04/15 05:46:58;;;;;;;11.80;7.90;;;8.50;99.90;;;;;;6255930;22;20028;-80
2022/04/15 05:49:25;;;;;;;18.17;11.13;;;8.60;99.90;;;;;;6254721;22;20012;-80
2022/04/15 05:51:50;;;;;;;17.88;10.55;;;8.70;99.90;;;;;;6253654;22;20008;-80
2022/04/15 05:54:16;;;;;;;13.38;9.05;;;8.70;99.90;;;;;;6256050;22;20009;-80
2022/04/15 05:56:42;;;;;;;12.45;8.52;;;8.80;99.90;;;;;;6255131;22;20016;-81
2022/04/15 05:59:07;;;;;;;11.30;8.38;;;8.70;99.90;;;;;;6256374;22;20095;-81
2022/04/15 06:01:34;;;;;;;14.52;8.95;;;8.80;99.90;;;;;;6254771;22;20017;-81
2022/04/15 06:03:59;;;;;;;11.98;9.13;;;8.80;99.90;;;;;;6257098;22;20432;-80
2022/04/15 06:06:25;;;;;;;13.88;8.18;;;8.90;99.90;;;;;;6258016;22;20062;-80
2022/04/15 06:08:51;;;;;;;11.15;8.25;;;9.00;99.90;;;;;;6255207;22;20020;-80
2022/04/15 06:11:16;;;;;;;11.13;7.80;;;9.10;99.90;;;;;;6257754;22;20012;-81
2022/04/15 06:13:47;;;;;;;11.05;7.85;;;9.20;99.90;;;;;;6259754;22;20008;-81
2022/04/15 06:16:17;;;;;;;12.65;8.65;;;9.30;99.90;;;;;;6262687;22;20013;-81
2022/04/15 06:18:43;;;;;;;10.48;7.63;;;9.50;99.90;;;;;;6261385;22;20013;-81
2022/04/15 06:21:08;;;;;;;12.15;8.40;;;9.60;99.90;;;;;;6264003;22;20001;-81
2022/04/15 06:23:34;;;;;;;10.30;7.47;;;9.70;99.90;;;;;;6263255;22;20005;-84
2022/04/15 06:25:59;;;;;;;11.70;7.70;;;9.80;99.90;;;;;;6259769;22;20094;-81
2022/04/15 06:28:25;;;;;;;9.32;7.60;;;9.80;99.90;;;;;;6262748;22;20005;-81
2022/04/15 06:30:51;;;;;;;8.02;6.88;;;10.00;99.90;;;;;;6257885;22;20005;-81
2022/04/15 06:33:20;;;;;;;10.30;7.90;;;9.90;99.90;;;;;;6263711;22;20005;-83
2022/04/15 06:35:46;;;;;;;14.93;8.57;;;10.00;99.90;;;;;;6262800;22;20019;-78
2022/04/15 06:38:11;;;;;;;11.75;9.05;;;10.10;99.90;;;;;;6257261;22;20009;-79
2022/04/15 06:40:38;;;;;;;13.27;9.23;;;10.10;99.90;;;;;;6257888;22;20008;-79
2022/04/15 06:43:05;;;;;;;14.10;8.88;;;10.10;99.90;;;;;;6255855;22;20099;-79
2022/04/15 06:45:30;;;;;;;11.15;8.90;;;10.20;99.90;;;;;;6257341;22;20004;-80
2022/04/15 06:47:56;;;;;;;14.07;9.60;;;10.20;99.90;;;;;;6253981;22;20008;-79
2022/04/15 06:50:21;;;;;;;12.80;9.52;;;10.30;99.90;;;;;;6253845;22;20083;-78
2022/04/15 06:52:48;;;;;;;12.23;9.55;;;10.40;99.90;;;;;;6251732;22;20380;-75
2022/04/15 06:55:13;;;;;;;12.98;9.68;;;10.40;99.90;;;;;;6253669;22;20012;-76
2022/04/15 06:57:39;;;;;;;11.32;9.90;;;10.50;99.90;;;;;;6253545;22;20047;-80
2022/04/15 07:00:06;;;;;;;11.93;9.75;;;10.60;99.90;;;;;;6254136;22;20130;-78
2022/04/15 07:02:34;;;;;;;15.85;10.13;;;10.70;99.90;;;;;;6253555;22;20009;-75
2022/04/15 07:04:59;;;;;;;15.02;10.95;;;10.80;99.90;;;;;;6252253;22;20883;-75
2022/04/15 07:07:25;;;;;;;14.88;11.35;;;11.00;99.90;;;;;;6253029;22;20079;-75
2022/04/15 07:09:50;;;;;;;13.15;9.65;;;11.10;99.90;;;;;;6250887;22;20028;-75
2022/04/15 07:12:17;;;;;;;17.15;11.15;;;11.20;99.90;;;;;;6252575;22;20001;-75
2022/04/15 07:14:43;;;;;;;13.52;10.73;;;11.30;99.90;;;;;;6252555;22;20005;-76
2022/04/15 07:17:08;;;;;;;12.43;10.43;;;11.40;99.90;;;;;;6225368;22;20505;-75
2022/04/15 07:19:34;;;;;;;13.80;10.60;;;11.60;99.90;;;;;;6252324;22;20447;-77
2022/04/15 07:21:59;;;;;;;18.20;10.55;;;11.70;99.90;;;;;;6252488;22;20012;-77
2022/04/15 07:24:27;;;;;;;12.80;10.65;;;11.90;99.90;;;;;;6252966;22;20007;-77
2022/04/15 07:26:52;;;;;;;15.98;10.80;;;12.10;99.90;;;;;;6225797;22;20423;-76
2022/04/15 07:29:20;;;;;;;13.68;10.32;;;12.30;99.90;;;;;;6252278;22;20011;-75
2022/04/15 07:31:46;;;;;;;12.57;11.00;;;12.50;99.90;;;;;;6252163;22;20004;-77
2022/04/15 07:34:11;;;;;;;15.35;11.20;;;12.70;99.90;;;;;;6252637;22;20031;-75
2022/04/15 07:39:09;;;;;;;14.73;10.45;;;13.00;99.90;;;;;;6252692;22;20004;-77
2022/04/15 07:41:36;;;;;;;14.38;10.75;;;13.10;99.90;;;;;;6253285;22;20089;-78
2022/04/15 07:44:03;;;;;;;13.30;10.20;;;13.30;99.90;;;;;;6252672;22;20036;-76
2022/04/15 07:46:29;;;;;;;13.32;9.98;;;13.40;99.90;;;;;;6252463;22;20019;-76
2022/04/15 07:48:54;;;;;;;12.73;9.18;;;13.50;99.90;;;;;;6225639;22;20009;-76
2022/04/15 07:51:20;;;;;;;13.20;10.70;;;13.60;99.90;;;;;;6252064;22;20020;-79
2022/04/15 07:53:46;;;;;;;14.02;10.60;;;13.70;99.90;;;;;;6252317;22;20004;-78
2022/04/15 07:56:11;;;;;;;14.05;10.63;;;13.90;99.90;;;;;;6253523;22;20008;-78
2022/04/15 07:58:37;;;;;;;13.60;10.57;;;14.00;99.90;;;;;;6253196;22;20000;-80
2022/04/15 08:01:02;;;;;;;14.98;10.35;;;14.20;99.90;;;;;;6231666;22;20012;-77
2022/04/15 08:03:28;;;;;;;13.40;10.10;;;14.30;99.90;;;;;;6254498;22;20001;-77
2022/04/15 08:05:54;;;;;;;15.10;10.73;;;14.40;99.90;;;;;;6252109;22;20095;-77
2022/04/15 08:08:20;;;;;;;12.65;9.98;;;14.50;99.90;;;;;;6252376;22;20023;-77
2022/04/15 08:10:48;;;;;;;13.65;10.20;;;14.70;99.90;;;;;;6252598;22;20005;-77
2022/04/15 08:13:14;;;;;;;14.27;10.15;;;15.00;99.90;;;;;;6254243;22;20388;-78
2022/04/15 08:15:39;;;;;;;14.27;10.90;;;15.20;99.90;;;;;;6252351;22;20056;-77
2022/04/15 08:18:05;;;;;;;12.20;10.07;;;15.30;99.90;;;;;;6253173;22;20072;-78
2022/04/15 08:20:31;;;;;;;14.80;11.05;;;15.50;99.90;;;;;;6250975;22;20017;-77
2022/04/15 08:22:56;;;;;;;15.45;12.20;;;15.50;99.90;;;;;;6255991;22;20008;-80
2022/04/15 08:25:25;;;;;;;13.63;11.38;;;15.60;99.90;;;;;;6254875;22;20009;-78
2022/04/15 08:27:51;;;;;;;17.92;11.63;;;15.60;99.90;;;;;;6253006;22;20009;-75
2022/04/15 08:30:16;;;;;;;13.32;11.30;;;15.60;99.90;;;;;;6250470;22;20069;-78
2022/04/15 08:32:42;;;;;;;13.27;10.80;;;15.80;99.90;;;;;;6251544;22;20027;-76
2022/04/15 08:35:11;;;;;;;12.55;10.45;;;15.90;99.90;;;;;;6250768;22;20004;-76
2022/04/15 08:37:40;;;;;;;14.55;10.95;;;15.90;99.90;;;;;;6252069;22;20019;-76
2022/04/15 08:40:06;;;;;;;16.50;11.07;;;16.10;99.90;;;;;;6252182;22;20024;-77
2022/04/15 08:42:32;;;;;;;13.13;11.15;;;16.30;99.90;;;;;;6253521;22;20756;-77
2022/04/15 08:44:57;;;;;;;15.57;11.27;;;16.50;99.90;;;;;;6252551;22;20040;-77
2022/04/15 08:47:24;;;;;;;16.95;11.48;;;16.70;99.90;;;;;;6251670;22;20429;-79
2022/04/15 08:49:50;;;;;;;13.18;11.23;;;16.80;99.90;;;;;;6252905;22;20027;-78
2022/04/15 08:52:17;;;;;;;14.65;11.10;;;16.80;99.90;;;;;;6252716;22;20009;-76
2022/04/15 08:54:45;;;;;;;13.38;10.63;;;16.90;99.90;;;;;;6252580;22;20008;-76
2022/04/15 08:57:17;;;;;;;15.63;10.98;;;17.10;99.90;;;;;;6251994;22;20051;-78
2022/04/15 08:59:43;;;;;;;13.90;11.02;;;17.30;99.90;;;;;;6252242;22;20099;-78
2022/04/15 09:02:14;;;;;;;13.88;10.82;;;17.30;99.90;;;;;;6253307;22;20016;-77
2022/04/15 09:04:40;;;;;;;14.32;12.20;;;17.50;99.90;;;;;;6254038;22;20029;-76
2022/04/15 09:07:05;;;;;;;18.27;13.05;;;17.40;99.90;;;;;;6254129;22;20008;-72
2022/04/15 09:09:32;;;;;;;20.00;15.02;;;17.60;99.90;;;;;;6252835;22;20000;-74
2022/04/15 09:11:59;;;;;;;21.25;14.00;;;17.80;99.90;;;;;;6254203;22;20016;-77
2022/04/15 09:14:28;;;;;;;14.82;10.23;;;17.90;99.90;;;;;;6255221;22;20009;-76
2022/04/15 09:16:54;;;;;;;16.98;10.27;;;18.00;99.90;;;;;;6253426;22;20043;-77
2022/04/15 09:19:20;;;;;;;14.65;11.05;;;18.10;99.90;;;;;;6253982;22;20067;-77
2022/04/15 09:22:04;;;;;;;13.60;10.63;;;18.20;99.90;;;;;;6227670;22;20371;-77
2022/04/15 09:24:34;;;;;;;12.27;10.25;;;18.10;99.90;;;;;;6226928;22;20012;-81
2022/04/15 09:27:08;;;;;;;14.98;11.60;;;18.30;99.90;;;;;;6228851;22;20008;-79
2022/04/15 09:29:41;;;;;;;14.18;11.20;;;18.50;99.90;;;;;;6229341;22;20009;-78
2022/04/15 09:32:14;;;;;;;17.48;12.27;;;18.70;99.90;;;;;;6228438;22;20012;-76
2022/04/15 09:34:58;;;;;;;15.60;11.45;;;18.70;99.90;;;;;;6251758;22;20070;-78
2022/04/15 09:37:30;;;;;;;12.27;10.27;;;18.90;99.90;;;;;;6225844;22;20029;-78
2022/04/15 09:40:26;;;;;;;15.70;10.75;;;19.10;99.90;;;;;;6254589;22;20447;-79
2022/04/15 09:42:56;;;;;;;14.20;11.50;;;19.10;98.90;;;;;;6227659;22;20016;-78
2022/04/15 09:45:34;;;;;;;13.10;10.45;;;19.00;97.20;;;;;;6254551;22;20029;-78
2022/04/15 09:48:01;;;;;;;13.30;11.48;;;19.20;99.30;;;;;;6254374;22;20012;-76
2022/04/15 09:50:31;;;;;;;14.25;11.27;;;18.80;96.90;;;;;;6253330;22;20274;-75
2022/04/15 09:53:17;;;;;;;14.82;11.13;;;18.50;97.40;;;;;;6253397;22;20004;-78
2022/04/15 09:55:48;;;;;;;12.35;10.20;;;18.60;96.60;;;;;;6255319;22;20495;-75
2022/04/15 09:58:18;;;;;;;14.00;10.55;;;18.80;96.00;;;;;;6226180;22;20005;-76
2022/04/15 10:00:51;;;;;;;13.50;11.07;;;19.00;96.80;;;;;;6253580;22;20008;-79
2022/04/15 10:03:27;;;;;;;15.10;10.77;;;19.40;94.90;;;;;;6226639;22;20015;-74
2022/04/15 10:05:54;;;;;;;12.55;10.68;;;19.60;94.00;;;;;;6231180;22;20167;-77
2022/04/15 10:08:22;;;;;;;11.10;9.40;;;19.60;92.70;;;;;;6267360;22;20001;-85
2022/04/15 10:10:48;;;;;;;11.45;9.45;;;19.70;93.30;;;;;;6255201;22;20008;-78
2022/04/15 10:13:14;;;;;;;14.63;10.25;;;19.60;93.50;;;;;;6253499;22;20040;-76
2022/04/15 10:15:40;;;;;;;14.18;10.00;;;19.60;92.70;;;;;;6253587;22;20031;-78
2022/04/15 10:18:08;;;;;;;12.15;10.02;;;19.60;94.00;;;;;;6253476;22;20058;-76
2022/04/15 10:20:34;;;;;;;13.98;9.88;;;19.40;92.30;;;;;;6253496;22;20520;-73
2022/04/15 10:23:02;;;;;;;12.13;10.75;;;19.50;92.30;;;;;;6252785;22;20004;-77
2022/04/15 10:25:43;;;;;;;13.82;10.25;;;19.60;91.30;;;;;;6226873;22;20036;-77
2022/04/15 10:28:25;;;;;;;12.80;9.65;;;19.70;93.70;;;;;;6264645;22;20009;-77
2022/04/15 10:31:05;;;;;;;12.88;10.43;;;19.90;91.20;;;;;;6267161;22;20004;-82
2022/04/15 10:33:36;;;;;;;12.25;9.45;;;19.80;92.70;;;;;;6259709;22;20008;-77
2022/04/15 10:36:20;;;;;;;11.63;9.70;;;19.90;90.90;;;;;;6232035;22;20448;-76
2022/04/15 10:39:11;;;;;;;11.23;9.20;;;19.90;91.60;;;;;;6259693;22;19996;-80
2022/04/15 10:41:46;;;;;;;12.13;9.13;;;20.10;91.20;;;;;;6240845;22;20459;-82
2022/04/15 10:44:47;;;;;;;11.65;8.63;;;20.40;91.40;;;;;;6242495;22;20045;-78
2022/04/15 10:47:16;;;;;;;10.63;8.93;;;20.40;88.80;;;;;;6269324;22;20067;-80
2022/04/15 10:50:09;;;;;;;12.75;8.25;;;20.10;90.00;;;;;;6270587;22;20031;-84
2022/04/15 10:52:36;;;;;;;11.18;9.32;;;20.50;88.90;;;;;;6249097;22;20032;-80
2022/04/15 10:55:13;;;;;;;10.85;8.90;;;20.70;88.20;;;;;;6257257;22;20161;-80
2022/04/15 10:57:46;;;;;;;10.95;8.75;;;21.00;85.00;;;;;;6228891;22;20052;-82
2022/04/15 11:03:48;;;;;;;10.70;7.65;;;21.00;88.90;;;;;;6260123;22;20078;-80
2022/04/15 11:06:28;;;;;;;9.82;8.27;;;21.40;85.50;;;;;;6258284;22;20009;-78
2022/04/15 11:08:54;;;;;;;11.75;7.95;;;21.60;81.20;;;;;;6254219;22;20464;-78
2022/04/15 11:11:39;;;;;;;11.38;7.65;;;21.60;83.60;;;;;;6252971;22;20521;-79
2022/04/15 11:14:05;;;;;;;10.18;7.30;;;21.40;81.60;;;;;;6253972;22;20008;-78
2022/04/15 11:16:59;;;;;;;7.85;6.72;;;21.60;80.40;;;;;;6254858;22;20008;-78
2022/04/15 11:19:25;;;;;;;8.25;6.95;;;21.60;78.00;;;;;;6250066;22;20096;-78
2022/04/15 11:21:53;;;;;;;9.95;7.85;;;21.90;79.40;;;;;;6256267;22;20815;-78
2022/04/15 11:24:44;;;;;;;13.20;11.02;;;21.50;81.70;;;;;;6262388;22;20012;-79
2022/04/15 11:27:10;;;;;;;14.35;11.50;;;21.50;79.10;;;;;;6257571;22;20071;-78
2022/04/15 11:29:37;;;;;;;12.70;8.65;;;21.90;80.90;;;;;;6253436;22;20008;-78
2022/04/15 11:32:07;;;;;;;11.18;8.00;;;21.80;80.60;;;;;;6253991;22;20005;-77
2022/04/15 11:34:34;;;;;;;13.18;9.25;;;21.20;81.30;;;;;;6254356;22;20000;-78
2022/04/15 11:37:04;;;;;;;10.88;7.97;;;20.70;82.10;;;;;;6254932;22;20146;-78
2022/04/15 11:39:35;;;;;;;10.00;7.20;;;20.40;85.50;;;;;;6259611;22;20035;-79
2022/04/15 11:42:08;;;;;;;9.18;6.78;;;20.70;81.60;;;;;;6257284;22;20004;-83
2022/04/15 11:44:34;;;;;;;10.68;7.60;;;21.20;81.10;;;;;;6256641;22;20388;-80
2022/04/15 11:47:16;;;;;;;19.27;14.13;;;21.60;78.50;;;;;;6255142;22;20009;-78
2022/04/15 11:49:42;;;;;;;27.13;21.38;;;21.80;78.00;;;;;;6253391;22;19997;-82
2022/04/15 11:52:09;;;;;;;9.85;7.35;;;21.30;79.20;;;;;;6251143;22;20119;-77
2022/04/15 11:54:38;;;;;;;19.15;13.98;;;21.00;77.30;;;;;;6253972;22;20019;-78
2022/04/15 11:57:04;;;;;;;8.02;5.85;;;21.30;78.50;;;;;;6253269;22;20013;-78
2022/04/15 11:59:38;;;;;;;8.77;7.45;;;21.50;78.20;;;;;;6256165;22;20014;-81
2022/04/15 12:02:04;;;;;;;8.32;6.93;;;21.70;74.20;;;;;;6254881;22;20009;-77
2022/04/15 12:04:29;;;;;;;11.73;7.97;;;21.90;76.70;;;;;;6255469;22;20004;-78
2022/04/15 12:06:55;;;;;;;16.02;13.85;;;22.10;73.80;;;;;;6255179;22;20005;-79
2022/04/15 12:09:24;;;;;;;22.90;17.02;;;22.60;71.00;;;;;;6260013;22;20083;-79
2022/04/15 12:11:51;;;;;;;8.18;5.85;;;23.30;72.70;;;;;;6255247;22;20453;-79
2022/04/15 12:14:17;;;;;;;7.85;4.90;;;23.60;71.00;;;;;;6255615;22;20005;-79
2022/04/15 12:16:45;;;;;;;6.63;5.00;;;24.00;69.50;;;;;;6225736;22;20012;-79
2022/04/15 12:19:11;;;;;;;8.23;5.43;;;24.00;70.30;;;;;;6252896;22;20012;-80
2022/04/15 12:21:37;;;;;;;7.25;5.15;;;23.50;70.70;;;;;;6260178;22;20012;-82
2022/04/15 12:24:07;;;;;;;7.45;5.47;;;23.20;70.60;;;;;;6229404;22;20007;-79
2022/04/15 12:26:52;;;;;;;6.60;4.63;;;23.00;68.60;;;;;;6228638;22;20436;-79
2022/04/15 12:32:34;;;;;;;9.32;5.90;;;22.50;76.60;;;;;;6258094;22;20036;-80
2022/04/15 12:35:00;;;;;;;8.95;5.90;;;22.40;73.80;;;;;;6252452;22;20091;-78
2022/04/15 12:37:47;;;;;;;5.80;4.90;;;22.10;72.50;;;;;;6257627;22;20036;-79
2022/04/15 12:40:19;;;;;;;6.53;4.95;;;21.70;74.70;;;;;;6256592;22;20009;-81
2022/04/15 12:42:46;;;;;;;6.10;4.80;;;21.30;75.20;;;;;;6229775;22;20483;-78
2022/04/15 12:45:12;;;;;;;7.88;4.57;;;21.70;73.60;;;;;;6259407;22;20001;-83
2022/04/15 12:47:39;;;;;;;5.85;4.05;;;22.60;75.70;;;;;;6259771;22;20123;-82
2022/04/15 12:50:26;;;;;;;4.25;3.20;;;22.90;69.40;;;;;;6229266;22;20013;-81
2022/04/15 12:52:53;;;;;;;5.22;4.30;;;22.70;68.70;;;;;;6234588;22;20009;-85
2022/04/15 12:55:35;;;;;;;4.95;3.67;;;22.20;68.80;;;;;;6235160;22;20004;-81
2022/04/15 12:58:16;;;;;;;6.68;3.90;;;22.00;69.40;;;;;;6265260;22;20009;-83
2022/04/15 13:00:42;;;;;;;3.75;3.28;;;21.70;73.60;;;;;;6242542;22;20024;-82
2022/04/15 13:03:07;;;;;;;5.32;3.40;;;22.10;71.10;;;;;;6292779;22;20089;-83
2022/04/15 13:05:33;;;;;;;3.97;3.03;;;22.70;68.70;;;;;;6261087;22;20015;-82
2022/04/15 13:07:58;;;;;;;6.97;3.22;;;23.30;65.20;;;;;;6263413;22;20084;-81
2022/04/15 13:10:27;;;;;;;5.57;2.83;;;23.50;65.30;;;;;;6291802;22;20012;-83
2022/04/15 13:12:53;;;;;;;4.47;2.30;;;23.60;64.70;;;;;;6262998;22;20039;-79
2022/04/15 13:15:18;;;;;;;4.82;2.55;;;23.60;65.00;;;;;;6262768;22;20004;-83
2022/04/15 13:17:44;;;;;;;4.80;2.97;;;23.70;66.70;;;;;;6293164;22;20557;-83
2022/04/15 13:20:11;;;;;;;3.40;3.00;;;23.10;66.30;;;;;;6265642;22;20044;-82
2022/04/15 13:22:38;;;;;;;5.72;3.35;;;21.90;71.40;;;;;;6293296;22;20455;-82
2022/04/15 13:25:04;;;;;;;5.53;3.92;;;21.40;71.00;;;;;;6292136;22;20011;-80
2022/04/15 13:27:31;;;;;;;5.80;3.85;;;21.80;74.10;;;;;;6287202;22;20028;-80
2022/04/15 13:29:58;;;;;;;4.28;3.20;;;22.10;71.00;;;;;;6288387;22;20336;-82
2022/04/15 13:32:24;;;;;;;7.07;4.30;;;22.30;69.20;;;;;;6261429;22;20575;-83
2022/04/15 13:34:49;;;;;;;4.40;3.13;;;22.50;66.70;;;;;;6287783;22;20000;-84
2022/04/15 13:37:16;;;;;;;5.18;3.28;;;23.10;67.80;;;;;;6253009;22;20440;-80
2022/04/15 13:39:42;;;;;;;4.90;2.83;;;23.80;68.30;;;;;;6255405;22;20015;-83
2022/04/15 13:42:10;;;;;;;4.80;3.08;;;24.20;68.10;;;;;;6256360;22;20133;-81
2022/04/15 13:44:35;;;;;;;5.15;3.08;;;24.80;64.90;;;;;;6257113;22;20001;-80
2022/04/15 13:47:03;;;;;;;3.97;3.08;;;24.40;64.70;;;;;;6284549;22;20337;-79
2022/04/15 13:49:29;;;;;;;4.80;2.80;;;25.00;62.30;;;;;;6261037;22;20007;-79
2022/04/15 13:51:54;;;;;;;5.35;2.88;;;24.50;61.90;;;;;;6257606;22;20023;-80
2022/04/15 13:57:04;;;;;;;3.05;2.60;;;22.50;67.70;;;;;;6284494;22;20020;-81
2022/04/15 13:59:30;;;;;;;2.33;1.90;;;21.90;68.40;;;;;;6256810;22;20452;-80
2022/04/15 14:01:55;;;;;;;3.33;2.40;;;21.90;70.50;;;;;;6262476;22;20063;-81
2022/04/15 14:04:21;;;;;;;2.25;1.75;;;23.70;66.00;;;;;;6254130;22;20314;-82
2022/04/15 14:06:48;;;;;;;2.60;1.92;;;25.20;59.70;;;;;;6246785;22;20009;-86
2022/04/15 14:09:16;;;;;;;2.35;1.80;;;26.40;57.50;;;;;;6247740;22;20012;-82
2022/04/15 14:11:43;;;;;;;1.60;1.40;;;25.90;57.90;;;;;;6219768;22;20008;-82
2022/04/15 14:14:13;;;;;;;2.28;1.60;;;24.90;58.60;;;;;;6251631;22;20005;-88
2022/04/15 14:16:40;;;;;;;2.67;1.60;;;24.40;62.50;;;;;;6225381;22;20044;-88
2022/04/15 14:19:06;;;;;;;2.35;1.70;;;24.90;57.80;;;;;;6225777;22;20016;-87
2022/04/15 14:21:35;;;;;;;2.47;1.58;;;24.70;59.10;;;;;;6226867;22;20008;-88
2022/04/15 14:24:00;;;;;;;4.95;1.63;;;24.50;63.30;;;;;;6226642;22;20005;-87
2022/04/15 14:26:26;;;;;;;1.83;1.30;;;25.30;59.00;;;;;;6228074;22;20345;-82
2022/04/15 14:28:52;;;;;;;2.42;1.40;;;25.10;61.70;;;;;;6252929;22;20009;-83
2022/04/15 14:31:18;;;;;;;3.17;1.40;;;26.10;58.00;;;;;;6226750;22;20004;-81
2022/04/15 14:33:44;;;;;;;1.92;1.40;;;27.60;54.50;;;;;;6253952;22;20424;-83
2022/04/15 14:36:10;;;;;;;2.00;1.80;;;28.40;52.40;;;;;;6225550;22;20016;-85
2022/04/15 14:38:38;;;;;;;1.92;1.77;;;27.90;57.30;;;;;;6228014;22;20072;-84
2022/04/15 14:41:05;;;;;;;4.18;2.17;;;28.30;54.10;;;;;;6227314;22;20012;-82
2022/04/15 14:43:35;;;;;;;2.58;1.40;;;29.10;54.40;;;;;;6254303;22;20421;-82
2022/04/15 14:46:01;;;;;;;2.50;1.20;;;28.50;48.70;;;;;;6226701;22;20008;-81
2022/04/15 14:48:26;;;;;;;1.77;1.30;;;28.70;52.00;;;;;;6254098;22;20353;-82
2022/04/15 14:50:55;;;;;;;2.13;1.00;;;29.70;50.20;;;;;;6230443;22;20030;-83
2022/04/15 14:53:20;;;;;;;1.63;0.95;;;31.00;46.90;;;;;;6231883;22;20082;-84
2022/04/15 14:55:49;;;;;;;1.58;1.20;;;30.90;46.40;;;;;;6263016;22;20054;-82
2022/04/15 14:58:15;;;;;;;2.30;1.05;;;30.00;48.00;;;;;;6258799;22;20012;-82
2022/04/15 15:00:41;;;;;;;2.20;1.10;;;30.00;48.00;;;;;;6238179;22;20012;-82
2022/04/15 15:03:07;;;;;;;2.28;1.05;;;30.90;44.90;;;;;;6290721;22;20510;-82
2022/04/15 15:05:33;;;;;;;1.25;1.15;;;30.00;45.40;;;;;;6264408;22;20008;-82
2022/04/15 15:07:59;;;;;;;1.83;1.00;;;29.20;45.40;;;;;;6259342;22;20070;-80
2022/04/15 15:10:25;;;;;;;1.65;0.98;;;29.40;48.40;;;;;;6290995;22;20030;-82
2022/04/15 15:12:52;;;;;;;2.47;1.05;;;29.30;50.50;;;;;;6288918;22;20019;-82
2022/04/15 15:15:18;;;;;;;1.73;1.08;;;29.70;46.10;;;;;;6260247;22;20031;-82
2022/04/15 15:17:46;;;;;;;1.25;0.90;;;30.40;47.20;;;;;;6287797;22;20016;-81
2022/04/15 15:20:13;;;;;;;2.53;0.88;;;31.40;44.80;;;;;;6288988;22;20053;-83
2022/04/15 15:22:39;;;;;;;2.25;0.98;;;32.10;43.80;;;;;;6273651;22;20007;-85
2022/04/15 15:30:44;;;;;;;1.40;1.10;;;32.20;41.50;;;;;;6308415;22;20016;-84
2022/04/15 15:33:10;;;;;;;1.10;1.00;;;32.20;43.80;;;;;;6264021;22;20012;-84
2022/04/15 15:35:36;;;;;;;1.73;0.93;;;31.40;43.00;;;;;;6257590;22;20004;-83
2022/04/15 15:38:03;;;;;;;1.30;0.98;;;29.80;43.20;;;;;;6258743;22;20059;-81
2022/04/15 15:40:30;;;;;;;2.85;1.20;;;28.40;46.40;;;;;;6284358;22;20009;-84
2022/04/15 15:43:00;;;;;;;1.80;1.02;;;28.70;45.10;;;;;;6283152;22;20004;-86
2022/04/15 15:45:28;;;;;;;1.48;0.80;;;27.50;48.60;;;;;;6258103;22;20004;-79
2022/04/15 15:47:55;;;;;;;2.08;1.00;;;25.90;52.00;;;;;;6285713;22;20703;-77
2022/04/15 15:50:21;;;;;;;1.90;1.05;;;26.10;53.10;;;;;;6284530;22;20000;-83
2022/04/15 15:52:47;;;;;;;1.55;0.93;;;25.00;53.00;;;;;;6281878;22;20083;-82
2022/04/15 15:55:12;;;;;;;2.00;0.90;;;24.90;56.30;;;;;;6255624;22;20050;-83
2022/04/15 15:57:38;;;;;;;1.13;0.70;;;24.80;54.20;;;;;;6256179;22;20020;-86
2022/04/15 16:00:05;;;;;;;1.17;0.80;;;24.10;54.40;;;;;;6283785;22;20424;-85
2022/04/15 16:02:31;;;;;;;1.73;1.13;;;23.40;56.30;;;;;;6254021;22;20473;-83
2022/04/15 16:04:57;;;;;;;1.65;0.95;;;23.00;57.00;;;;;;6225969;22;20000;-85
2022/04/15 16:07:22;;;;;;;2.70;0.90;;;22.50;58.70;;;;;;6252630;22;20035;-84
2022/04/15 16:09:48;;;;;;;1.60;0.90;;;21.90;58.90;;;;;;6253118;22;20066;-86
2022/04/15 16:12:15;;;;;;;2.08;1.10;;;21.60;59.30;;;;;;6226362;22;20027;-85
2022/04/15 16:14:40;;;;;;;1.20;1.08;;;21.40;60.70;;;;;;6254223;22;20000;-86
2022/04/15 16:17:06;;;;;;;2.45;1.20;;;20.80;62.30;;;;;;6253186;22;20017;-85
2022/04/15 16:19:32;;;;;;;1.40;0.98;;;20.40;61.50;;;;;;6226093;22;20005;-85
2022/04/15 16:22:01;;;;;;;2.72;1.20;;;20.30;63.90;;;;;;6254257;22;20008;-84
2022/04/15 16:24:27;;;;;;;1.50;1.13;;;20.20;61.90;;;;;;6254859;22;19993;-83
2022/04/15 16:26:53;;;;;;;3.08;1.38;;;20.30;63.50;;;;;;6228868;22;20013;-83
2022/04/15 16:29:20;;;;;;;1.58;1.08;;;20.10;63.20;;;;;;6255696;22;20429;-81
2022/04/15 16:31:46;;;;;;;2.45;1.25;;;20.30;65.80;;;;;;6226146;22;20013;-80
2022/04/15 16:34:12;;;;;;;1.50;1.08;;;20.30;64.90;;;;;;6255316;22;20032;-81
2022/04/15 16:36:38;;;;;;;2.05;1.48;;;20.30;68.90;;;;;;6225748;22;20072;-84
2022/04/15 16:39:03;;;;;;;2.85;1.20;;;20.10;66.70;;;;;;6257122;22;20013;-82
2022/04/15 16:41:29;;;;;;;1.48;1.10;;;19.90;67.60;;;;;;6254613;22;20011;-83
2022/04/15 16:43:55;;;;;;;2.55;1.10;;;20.00;64.40;;;;;;6229224;22;20064;-82
2022/04/15 16:46:22;;;;;;;2.03;1.10;;;20.50;63.80;;;;;;6256886;22;20044;-80
2022/04/15 16:48:48;;;;;;;1.85;1.20;;;21.30;63.10;;;;;;6229873;22;20083;-84
2022/04/15 16:51:16;;;;;;;1.85;1.17;;;21.80;63.00;;;;;;6257112;22;20106;-83
2022/04/15 16:54:08;;;;;;;2.42;1.30;;;21.40;59.50;;;;;;6264558;22;20024;-78
2022/04/15 16:59:19;;;;;;;3.63;1.13;;;21.10;60.90;;;;;;6255622;22;20365;-80
2022/04/15 17:01:45;;;;;;;3.55;1.00;;;20.70;61.70;;;;;;6246661;22;20020;-80
2022/04/15 17:04:12;;;;;;;3.40;1.10;;;20.50;63.50;;;;;;6287616;22;20034;-82
2022/04/15 17:06:38;;;;;;;2.75;1.33;;;20.40;63.50;;;;;;6259911;22;20008;-79